createdAt,value
2019-05-14T00:02:28.209Z,81.60
2019-05-14T00:04:56.591Z,81.80
2019-05-14T00:07:25.050Z,81.20
2019-05-14T00:09:53.436Z,81.90
2019-05-14T00:12:22.432Z,80.40
2019-05-14T00:14:51.603Z,82.20
2019-05-14T00:17:21.479Z,82.20
2019-05-14T00:20:05.907Z,82.90
2019-05-14T00:22:21.811Z,82.40
2019-05-14T00:24:52.030Z,82.00
2019-05-14T00:27:21.844Z,81.00
2019-05-14T00:29:51.778Z,82.20
2019-05-14T00:32:21.619Z,83.30
2019-05-14T00:34:51.537Z,86.80
2019-05-14T00:37:21.714Z,82.30
2019-05-14T00:39:52.102Z,83.90
2019-05-14T00:42:21.573Z,84.30
2019-05-14T00:44:55.329Z,84.30
2019-05-14T00:47:21.693Z,83.60
2019-05-14T00:49:51.725Z,83.40
2019-05-14T00:52:22.229Z,84.40
2019-05-14T00:54:52.179Z,87.20
2019-05-14T00:57:21.138Z,87.60
2019-05-14T00:59:51.909Z,85.50
2019-05-14T01:02:21.753Z,86.70
2019-05-14T01:04:51.630Z,87.40
2019-05-14T01:07:21.213Z,87.80
2019-05-14T01:09:52.139Z,87.70
2019-05-14T01:12:21.398Z,89.40
2019-05-14T01:14:52.849Z,87.70
2019-05-14T01:17:22.374Z,88.60
2019-05-14T01:19:51.374Z,87.20
2019-05-14T01:22:21.304Z,88.00
2019-05-14T01:24:52.024Z,89.40
2019-05-14T01:27:21.152Z,89.00
2019-05-14T01:29:51.391Z,90.70
2019-05-14T01:32:21.918Z,89.20
2019-05-14T01:34:52.265Z,89.40
2019-05-14T01:37:21.860Z,90.90
2019-05-14T01:39:51.973Z,91.00
2019-05-14T01:42:21.672Z,90.90
2019-05-14T01:44:51.877Z,90.60
2019-05-14T01:47:21.428Z,90.90
2019-05-14T01:49:51.508Z,91.40
2019-05-14T01:52:21.839Z,91.50
2019-05-14T01:54:51.501Z,92.30
2019-05-14T01:57:21.930Z,91.10
2019-05-14T01:59:51.704Z,92.30
2019-05-14T02:02:22.050Z,91.90
2019-05-14T02:04:51.312Z,92.40
2019-05-14T02:07:21.944Z,93.40
2019-05-14T02:09:51.746Z,92.40
2019-05-14T02:12:22.311Z,92.50
2019-05-14T02:14:51.235Z,92.80
2019-05-14T02:17:21.310Z,92.80
2019-05-14T02:19:51.524Z,92.70
2019-05-14T02:22:21.644Z,93.20
2019-05-14T02:24:52.029Z,93.80
2019-05-14T02:27:21.388Z,94.30
2019-05-14T02:29:51.903Z,93.00
2019-05-14T02:32:20.095Z,93.50
2019-05-14T02:34:49.868Z,93.40
2019-05-14T02:37:19.467Z,93.40
2019-05-14T02:39:50.245Z,93.50
2019-05-14T02:42:19.692Z,93.50
2019-05-14T02:44:48.922Z,93.00
2019-05-14T02:47:19.454Z,93.80
2019-05-14T02:49:50.094Z,93.60
2019-05-14T02:52:20.423Z,94.00
2019-05-14T02:54:49.486Z,94.70
2019-05-14T02:57:19.970Z,94.50
2019-05-14T02:59:50.195Z,93.80
2019-05-14T03:02:18.878Z,93.80
2019-05-14T03:04:49.883Z,94.10
2019-05-14T03:07:19.486Z,93.80
2019-05-14T03:09:50.275Z,94.30
2019-05-14T03:12:19.406Z,93.60
2019-05-14T03:14:49.974Z,94.70
2019-05-14T03:17:19.791Z,94.90
2019-05-14T03:19:49.552Z,94.60
2019-05-14T03:22:27.189Z,95.00
2019-05-14T03:24:50.297Z,95.30
2019-05-14T03:27:19.515Z,94.50
2019-05-14T03:29:49.925Z,94.80
2019-05-14T03:32:22.504Z,94.70
2019-05-14T03:34:52.914Z,94.00
2019-05-14T03:37:23.687Z,94.70
2019-05-14T03:39:49.339Z,94.70
2019-05-14T03:42:19.362Z,95.50
2019-05-14T03:44:49.100Z,95.40
2019-05-14T03:47:19.730Z,94.90
2019-05-14T03:49:49.775Z,94.10
2019-05-14T03:52:19.915Z,94.00
2019-05-14T03:54:49.648Z,94.20
2019-05-14T03:57:20.063Z,95.50
2019-05-14T03:59:49.913Z,95.40
2019-05-14T04:02:19.978Z,97.00
2019-05-14T04:04:50.180Z,95.50
2019-05-14T04:07:20.004Z,95.10
2019-05-14T04:09:50.247Z,96.10
2019-05-14T04:12:21.112Z,95.20
2019-05-14T04:14:51.491Z,96.50
2019-05-14T04:17:32.474Z,96.10
2019-05-14T04:19:53.949Z,96.00
2019-05-14T04:22:23.898Z,96.20
2019-05-14T04:24:55.301Z,95.90
2019-05-14T04:27:25.425Z,96.30
2019-05-14T04:29:54.276Z,96.20
2019-05-14T04:32:22.680Z,96.40
2019-05-14T04:34:51.205Z,95.90
2019-05-14T04:37:20.257Z,96.90
2019-05-14T04:39:50.396Z,96.30
2019-05-14T04:42:20.290Z,95.70
2019-05-14T04:44:50.258Z,96.40
2019-05-14T04:47:30.413Z,95.80
2019-05-14T04:49:50.511Z,96.90
2019-05-14T04:52:20.441Z,96.70
2019-05-14T04:54:50.096Z,96.20
2019-05-14T04:57:21.419Z,96.00
2019-05-14T04:59:49.838Z,95.60
2019-05-14T05:02:19.936Z,95.60
2019-05-14T05:04:50.799Z,95.80
2019-05-14T05:07:19.318Z,95.20
2019-05-14T05:09:50.220Z,95.80
2019-05-14T05:12:19.678Z,95.00
2019-05-14T05:14:49.320Z,95.60
2019-05-14T05:17:19.631Z,95.80
2019-05-14T05:19:51.700Z,95.50
2019-05-14T05:22:19.568Z,95.00
2019-05-14T05:24:48.531Z,95.40
2019-05-14T05:27:18.432Z,94.50
2019-05-14T05:29:48.598Z,94.00
2019-05-14T05:32:19.362Z,94.50
2019-05-14T05:34:48.261Z,93.60
2019-05-14T05:37:19.028Z,93.90
2019-05-14T05:39:49.102Z,93.50
2019-05-14T05:42:18.787Z,93.60
2019-05-14T05:44:48.377Z,93.20
2019-05-14T05:47:18.265Z,92.80
2019-05-14T05:49:48.765Z,93.10
2019-05-14T05:52:19.092Z,92.40
2019-05-14T05:54:48.999Z,92.10
2019-05-14T05:57:18.752Z,91.80
2019-05-14T05:59:48.505Z,91.10
2019-05-14T06:02:18.701Z,90.80
2019-05-14T06:04:48.131Z,90.20
2019-05-14T06:07:18.327Z,90.00
2019-05-14T06:09:48.285Z,90.40
2019-05-14T06:12:19.028Z,90.00
2019-05-14T06:14:48.805Z,89.40
2019-05-14T06:17:19.093Z,88.30
2019-05-14T06:19:48.644Z,87.80
2019-05-14T06:22:18.912Z,87.40
2019-05-14T06:24:48.514Z,87.50
2019-05-14T06:27:18.212Z,87.10
2019-05-14T06:29:48.893Z,87.40
2019-05-14T06:32:18.631Z,87.70
2019-05-14T06:34:48.902Z,86.40
2019-05-14T06:37:19.102Z,86.00
2019-05-14T06:39:48.435Z,85.50
2019-05-14T06:42:19.324Z,85.20
2019-05-14T06:44:49.240Z,82.90
2019-05-14T06:47:18.416Z,81.40
2019-05-14T06:49:48.793Z,83.10
2019-05-14T06:52:18.734Z,80.70
2019-05-14T06:54:49.702Z,81.30
2019-05-14T06:57:18.044Z,80.60
2019-05-14T06:59:48.453Z,78.90
2019-05-14T07:02:19.126Z,79.70
2019-05-14T07:04:48.424Z,80.40
2019-05-14T07:07:20.253Z,78.80
2019-05-14T07:09:48.857Z,80.00
2019-05-14T07:12:19.206Z,78.20
2019-05-14T07:14:48.382Z,76.20
2019-05-14T07:17:18.355Z,76.30
2019-05-14T07:19:49.147Z,75.80
2019-05-14T07:22:19.347Z,76.90
2019-05-14T07:24:58.757Z,78.30
2019-05-14T07:27:28.323Z,74.30
2019-05-14T07:29:58.350Z,71.80
2019-05-14T07:32:28.735Z,69.70
2019-05-14T07:34:59.464Z,75.40
2019-05-14T07:37:28.536Z,73.60
2019-05-14T07:39:58.059Z,70.80
2019-05-14T07:42:29.269Z,71.80
2019-05-14T07:44:58.907Z,71.00
2019-05-14T07:47:29.121Z,69.50
2019-05-14T07:49:58.312Z,73.00
2019-05-14T07:52:28.486Z,67.50
2019-05-14T07:54:58.707Z,69.10
2019-05-14T07:57:28.432Z,66.80
2019-05-14T07:59:58.897Z,65.20
2019-05-14T08:02:28.998Z,66.20
2019-05-14T08:04:58.066Z,65.70
2019-05-14T08:07:28.192Z,65.90
2019-05-14T08:09:58.376Z,65.20
2019-05-14T08:12:28.543Z,66.10
2019-05-14T08:15:13.451Z,60.80
2019-05-14T08:17:28.138Z,71.40
2019-05-14T08:19:58.337Z,63.50
2019-05-14T08:22:28.981Z,62.00
2019-05-14T08:24:58.132Z,69.60
2019-05-14T08:27:30.965Z,63.90
2019-05-14T08:29:58.790Z,65.60
2019-05-14T08:32:28.431Z,66.30
2019-05-14T08:34:58.457Z,56.60
2019-05-14T08:37:27.948Z,56.80
2019-05-14T08:39:58.853Z,57.10
2019-05-14T08:42:28.932Z,57.30
2019-05-14T08:44:59.087Z,53.70
2019-05-14T08:47:29.000Z,54.90
2019-05-14T08:49:59.632Z,55.00
2019-05-14T08:52:28.869Z,55.50
2019-05-14T08:55:09.089Z,57.80
2019-05-14T08:57:29.148Z,62.90
2019-05-14T08:59:59.346Z,52.50
2019-05-14T09:02:28.648Z,51.50
2019-05-14T09:05:02.874Z,51.80
2019-05-14T09:07:28.986Z,56.80
2019-05-14T09:10:00.114Z,48.40
2019-05-14T09:12:28.105Z,50.00
2019-05-14T09:14:58.882Z,47.30
2019-05-14T09:17:28.883Z,48.40
2019-05-14T09:20:05.747Z,48.90
2019-05-14T09:22:29.021Z,47.80
2019-05-14T09:24:59.985Z,48.40
2019-05-14T09:27:29.263Z,55.70
2019-05-14T09:29:58.943Z,46.20
2019-05-14T09:32:29.170Z,44.30
2019-05-14T09:34:58.963Z,44.20
2019-05-14T09:37:28.889Z,45.20
2019-05-14T09:39:58.427Z,59.20
2019-05-14T09:42:28.650Z,47.30
2019-05-14T09:44:59.515Z,49.70
2019-05-14T09:47:28.303Z,45.80
2019-05-14T09:49:59.708Z,49.50
2019-05-14T09:52:29.335Z,49.40
2019-05-14T09:54:58.557Z,47.80
2019-05-14T09:57:28.217Z,44.20
2019-05-14T09:59:58.613Z,48.20
2019-05-14T10:02:26.897Z,48.10
2019-05-14T10:04:55.315Z,47.60
2019-05-14T10:07:23.717Z,46.10
2019-05-14T10:09:52.112Z,41.90
2019-05-14T10:12:20.511Z,40.90
2019-05-14T10:14:50.383Z,42.60
2019-05-14T10:17:20.660Z,41.40
2019-05-14T10:19:52.425Z,44.60
2019-05-14T10:22:21.387Z,44.70
2019-05-14T10:24:49.964Z,46.20
2019-05-14T10:27:18.938Z,42.30
2019-05-14T10:29:48.255Z,44.30
2019-05-14T10:32:18.654Z,51.70
2019-05-14T10:34:48.476Z,42.80
2019-05-14T10:37:19.221Z,41.00
2019-05-14T10:39:47.642Z,54.50
2019-05-14T10:42:19.843Z,45.90
2019-05-14T10:44:46.704Z,45.50
2019-05-14T10:47:15.095Z,40.30
2019-05-14T10:49:43.727Z,54.90
2019-05-14T10:52:12.408Z,47.60
2019-05-14T10:54:54.997Z,40.40
2019-05-14T10:57:10.925Z,41.40
2019-05-14T10:59:39.296Z,44.90
2019-05-14T11:02:11.666Z,46.40
2019-05-14T11:04:38.930Z,49.00
2019-05-14T11:07:09.243Z,40.10
2019-05-14T11:09:38.256Z,43.90
2019-05-14T11:12:08.799Z,45.30
2019-05-14T11:14:38.723Z,39.50
2019-05-14T11:17:11.377Z,40.50
2019-05-14T11:19:39.019Z,39.70
2019-05-14T11:22:08.486Z,42.20
2019-05-14T11:24:38.601Z,40.80
2019-05-14T11:27:07.212Z,55.30
2019-05-14T11:29:35.608Z,43.50
2019-05-14T11:32:03.983Z,50.40
2019-05-14T11:34:32.393Z,40.40
2019-05-14T11:37:00.772Z,43.00
2019-05-14T11:39:29.453Z,40.30
2019-05-14T11:41:59.069Z,41.20
2019-05-14T11:44:28.556Z,42.20
2019-05-14T11:46:59.307Z,46.00
2019-05-14T11:49:27.369Z,39.90
2019-05-14T11:52:04.319Z,52.50
2019-05-14T11:54:25.881Z,40.00
2019-05-14T11:56:54.268Z,51.20
2019-05-14T11:59:22.673Z,39.90
2019-05-14T12:01:55.116Z,44.80
2019-05-14T12:04:23.320Z,50.00
2019-05-14T12:06:51.704Z,38.70
2019-05-14T12:09:20.098Z,43.80
2019-05-14T12:11:48.477Z,39.30
2019-05-14T12:14:18.986Z,44.40
2019-05-14T12:16:49.398Z,37.50
2019-05-14T12:19:18.806Z,49.10
2019-05-14T12:22:02.307Z,37.30
2019-05-14T12:24:18.472Z,47.00
2019-05-14T12:26:49.047Z,39.80
2019-05-14T12:29:17.104Z,36.50
2019-05-14T12:31:45.473Z,44.50
2019-05-14T12:34:13.872Z,38.70
2019-05-14T12:36:42.297Z,37.70
2019-05-14T12:39:10.700Z,38.10
2019-05-14T12:41:39.167Z,49.70
2019-05-14T12:44:09.292Z,38.40
2019-05-14T12:46:37.132Z,34.60
2019-05-14T12:49:05.608Z,35.00
2019-05-14T12:51:34.048Z,37.90
2019-05-14T12:54:02.442Z,39.00
2019-05-14T12:56:30.829Z,35.10
2019-05-14T12:58:59.210Z,43.80
2019-05-14T13:01:27.608Z,34.40
2019-05-14T13:03:56.061Z,36.70
2019-05-14T13:06:24.453Z,39.70
2019-05-14T13:08:52.837Z,37.80
2019-05-14T13:11:21.240Z,36.50
2019-05-14T13:13:49.639Z,44.40
2019-05-14T13:16:19.235Z,35.30
2019-05-14T13:18:49.826Z,38.70
2019-05-14T13:21:19.184Z,37.10
2019-05-14T13:23:48.718Z,43.30
2019-05-14T13:26:18.936Z,35.70
2019-05-14T13:28:50.716Z,41.00
2019-05-14T13:31:18.277Z,35.30
2019-05-14T13:33:48.906Z,40.00
2019-05-14T13:36:20.252Z,39.90
2019-05-14T13:38:49.035Z,38.80
2019-05-14T13:41:19.246Z,36.40
2019-05-14T13:43:50.451Z,43.30
2019-05-14T13:46:19.010Z,37.50
2019-05-14T13:48:49.899Z,39.10
2019-05-14T13:51:19.495Z,42.80
2019-05-14T13:53:49.919Z,37.90
2019-05-14T13:56:18.878Z,37.00
2019-05-14T13:58:48.819Z,39.50
2019-05-14T14:01:19.264Z,38.90
2019-05-14T14:04:02.185Z,37.10
2019-05-14T14:06:20.845Z,40.80
2019-05-14T14:08:48.829Z,37.60
2019-05-14T14:11:19.480Z,37.30
2019-05-14T14:13:48.989Z,37.50
2019-05-14T14:16:19.542Z,37.90
2019-05-14T14:18:50.021Z,40.50
2019-05-14T14:21:19.658Z,40.60
2019-05-14T14:23:49.530Z,39.50
2019-05-14T14:26:18.741Z,40.50
2019-05-14T14:28:49.305Z,40.60
2019-05-14T14:31:18.917Z,40.70
2019-05-14T14:33:48.670Z,39.30
2019-05-14T14:36:19.894Z,39.10
2019-05-14T14:38:49.559Z,39.10
2019-05-14T14:41:19.366Z,41.80
2019-05-14T14:43:53.763Z,39.60
2019-05-14T14:46:19.611Z,41.60
2019-05-14T14:48:49.324Z,40.60
2019-05-14T14:51:19.288Z,38.50
2019-05-14T14:53:58.983Z,42.90
2019-05-14T14:56:18.890Z,40.40
2019-05-14T14:58:49.327Z,40.40
2019-05-14T15:01:19.514Z,40.60
2019-05-14T15:03:49.621Z,40.40
2019-05-14T15:06:17.960Z,41.10
2019-05-14T15:08:49.400Z,42.30
2019-05-14T15:11:16.484Z,42.00
2019-05-14T15:13:44.877Z,39.20
2019-05-14T15:16:14.102Z,40.30
2019-05-14T15:18:42.655Z,41.60
2019-05-14T15:21:11.051Z,40.20
2019-05-14T15:23:43.162Z,41.40
2019-05-14T15:26:12.109Z,42.70
2019-05-14T15:28:39.994Z,41.20
2019-05-14T15:31:08.984Z,41.90
2019-05-14T15:33:37.542Z,42.60
2019-05-14T15:36:08.679Z,42.60
2019-05-14T15:38:36.051Z,42.90
2019-05-14T15:41:04.416Z,41.00
2019-05-14T15:43:34.248Z,41.40
2019-05-14T15:46:02.639Z,45.10
2019-05-14T15:48:31.042Z,43.90
2019-05-14T15:51:00.072Z,42.40
2019-05-14T15:53:29.126Z,43.20
2019-05-14T15:55:57.672Z,43.60
2019-05-14T15:58:26.081Z,42.20
2019-05-14T16:00:54.465Z,42.30
2019-05-14T16:03:22.849Z,42.50
2019-05-14T16:05:51.268Z,41.30
2019-05-14T16:08:22.714Z,40.90
2019-05-14T16:10:49.772Z,39.70
2019-05-14T16:13:20.860Z,40.80
2019-05-14T16:15:48.450Z,47.00
2019-05-14T16:18:19.752Z,42.30
2019-05-14T16:20:49.812Z,42.30
2019-05-14T16:23:18.762Z,41.20
2019-05-14T16:25:48.352Z,42.40
2019-05-14T16:28:19.577Z,43.80
2019-05-14T16:30:49.660Z,41.80
2019-05-14T16:33:18.679Z,45.80
2019-05-14T16:35:48.537Z,41.30
2019-05-14T16:38:17.157Z,43.70
2019-05-14T16:40:45.557Z,42.00
2019-05-14T16:43:13.935Z,46.80
2019-05-14T16:45:42.601Z,39.60
2019-05-14T16:48:11.232Z,43.40
2019-05-14T16:50:39.675Z,42.10
2019-05-14T16:53:11.592Z,43.20
2019-05-14T16:55:38.483Z,43.00
2019-05-14T16:58:08.991Z,42.40
2019-05-14T17:00:37.186Z,42.60
2019-05-14T17:03:05.564Z,43.00
2019-05-14T17:05:33.957Z,43.20
2019-05-14T17:08:02.349Z,44.50
2019-05-14T17:10:30.755Z,45.40
2019-05-14T17:13:01.731Z,44.50
2019-05-14T17:15:29.256Z,43.00
2019-05-14T17:17:59.688Z,44.70
2019-05-14T17:20:27.766Z,42.40
2019-05-14T17:22:56.158Z,43.30
2019-05-14T17:25:27.002Z,43.20
2019-05-14T17:27:54.655Z,45.40
2019-05-14T17:30:23.061Z,46.30
2019-05-14T17:32:51.474Z,43.80
2019-05-14T17:35:19.863Z,42.70
2019-05-14T17:37:48.476Z,44.00
2019-05-14T17:40:17.357Z,44.10
2019-05-14T17:42:48.524Z,44.40
2019-05-14T17:45:15.858Z,44.20
2019-05-14T17:47:44.258Z,43.60
2019-05-14T17:50:12.784Z,43.70
2019-05-14T17:52:44.200Z,44.20
2019-05-14T17:55:12.448Z,45.00
2019-05-14T17:57:45.882Z,45.70
2019-05-14T18:00:11.709Z,44.70
2019-05-14T18:02:40.408Z,45.60
2019-05-14T18:05:09.582Z,45.30
2019-05-14T18:07:38.212Z,45.20
2019-05-14T18:10:09.831Z,44.60
2019-05-14T18:12:39.850Z,48.60
2019-05-14T18:15:08.876Z,46.00
2019-05-14T18:17:39.279Z,44.80
2019-05-14T18:20:08.449Z,45.10
2019-05-14T18:22:42.172Z,46.30
2019-05-14T18:25:07.757Z,46.70
2019-05-14T18:27:38.807Z,47.70
2019-05-14T18:30:09.303Z,46.40
2019-05-14T18:32:37.760Z,46.30
2019-05-14T18:35:06.312Z,46.50
2019-05-14T18:37:34.711Z,46.00
2019-05-14T18:40:04.356Z,46.80
2019-05-14T18:42:34.024Z,46.40
2019-05-14T18:45:02.485Z,46.80
2019-05-14T18:47:30.881Z,46.70
2019-05-14T18:49:59.666Z,46.40
2019-05-14T18:52:29.640Z,47.10
2019-05-14T18:54:58.993Z,48.60
2019-05-14T18:57:28.747Z,47.40
2019-05-14T18:59:57.311Z,47.90
2019-05-14T19:02:29.079Z,48.10
2019-05-14T19:04:57.891Z,48.90
2019-05-14T19:07:28.771Z,49.30
2019-05-14T19:09:58.682Z,49.20
2019-05-14T19:12:28.987Z,50.60
2019-05-14T19:14:59.040Z,49.70
2019-05-14T19:17:28.417Z,50.00
2019-05-14T19:19:58.913Z,50.10
2019-05-14T19:22:28.761Z,50.40
2019-05-14T19:24:58.720Z,50.80
2019-05-14T19:27:28.640Z,50.90
2019-05-14T19:29:59.517Z,50.40
2019-05-14T19:32:28.281Z,50.60
2019-05-14T19:34:56.991Z,51.00
2019-05-14T19:37:25.387Z,51.00
2019-05-14T19:39:53.768Z,52.40
2019-05-14T19:42:22.144Z,51.70
2019-05-14T19:44:50.541Z,51.70
2019-05-14T19:47:18.940Z,52.90
2019-05-14T19:49:49.116Z,52.10
2019-05-14T19:52:17.441Z,51.80
2019-05-14T19:54:46.157Z,52.20
2019-05-14T19:57:19.148Z,52.70
2019-05-14T19:59:49.182Z,52.90
2019-05-14T20:02:18.447Z,53.80
2019-05-14T20:04:46.979Z,54.50
2019-05-14T20:07:15.352Z,55.00
2019-05-14T20:09:43.740Z,55.20
2019-05-14T20:12:12.121Z,55.00
2019-05-14T20:14:40.524Z,55.90
2019-05-14T20:17:09.063Z,55.90
2019-05-14T20:19:39.633Z,55.10
2019-05-14T20:22:07.785Z,55.70
2019-05-14T20:24:36.230Z,56.80
2019-05-14T20:27:11.344Z,57.00
2019-05-14T20:29:35.041Z,57.90
2019-05-14T20:32:03.437Z,57.70
2019-05-14T20:34:31.822Z,57.30
2019-05-14T20:37:00.222Z,58.20
2019-05-14T20:39:29.450Z,58.30
2019-05-14T20:41:58.740Z,58.30
2019-05-14T20:44:27.976Z,59.00
2019-05-14T20:46:58.347Z,59.60
2019-05-14T20:49:28.377Z,59.50
2019-05-14T20:51:59.383Z,59.10
2019-05-14T20:54:29.009Z,59.90
2019-05-14T20:56:58.608Z,59.40
2019-05-14T20:59:28.277Z,59.00
2019-05-14T21:01:58.802Z,60.00
2019-05-14T21:04:28.228Z,61.20
2019-05-14T21:06:58.632Z,60.40
2019-05-14T21:09:28.812Z,60.70
2019-05-14T21:11:57.258Z,61.60
2019-05-14T21:14:25.678Z,60.60
2019-05-14T21:16:54.061Z,61.80
2019-05-14T21:19:22.522Z,60.90
2019-05-14T21:21:51.004Z,61.60
2019-05-14T21:24:21.765Z,63.00
2019-05-14T21:26:49.585Z,63.30
2019-05-14T21:29:18.250Z,61.50
2019-05-14T21:31:46.640Z,62.20
2019-05-14T21:34:16.592Z,65.30
2019-05-14T21:36:46.627Z,64.20
2019-05-14T21:39:15.075Z,64.00
2019-05-14T21:41:43.779Z,64.00
2019-05-14T21:44:12.165Z,63.70
2019-05-14T21:46:40.560Z,66.30
2019-05-14T21:49:10.992Z,67.40
2019-05-14T21:51:39.343Z,66.90
2019-05-14T21:54:09.468Z,66.20
2019-05-14T21:56:38.726Z,67.20
2019-05-14T21:59:09.640Z,68.90
2019-05-14T22:01:39.265Z,68.70
2019-05-14T22:04:08.759Z,68.90
2019-05-14T22:06:41.158Z,69.40
2019-05-14T22:09:08.715Z,69.40
2019-05-14T22:11:39.334Z,71.10
2019-05-14T22:14:08.007Z,71.90
2019-05-14T22:16:38.156Z,72.40
2019-05-14T22:19:08.508Z,73.00
2019-05-14T22:21:41.351Z,72.90
2019-05-14T22:24:07.281Z,73.30
2019-05-14T22:26:35.704Z,73.80
2019-05-14T22:29:04.531Z,73.50
2019-05-14T22:31:32.911Z,74.90
2019-05-14T22:34:01.304Z,73.90
2019-05-14T22:36:29.689Z,73.70
2019-05-14T22:38:58.084Z,75.20
2019-05-14T22:41:28.889Z,73.80
2019-05-14T22:43:59.329Z,74.90
2019-05-14T22:46:26.693Z,72.20
2019-05-14T22:48:55.088Z,71.60
2019-05-14T22:51:23.473Z,71.70
2019-05-14T22:53:53.542Z,74.20
2019-05-14T22:56:21.920Z,73.60
2019-05-14T22:58:50.608Z,76.50
2019-05-14T23:01:18.991Z,76.50
2019-05-14T23:03:48.920Z,77.30
2019-05-14T23:06:18.737Z,79.70
2019-05-14T23:08:48.675Z,79.10
2019-05-14T23:11:19.843Z,81.00
2019-05-14T23:13:48.942Z,78.20
2019-05-14T23:16:30.934Z,80.20
2019-05-14T23:18:48.759Z,82.00
2019-05-14T23:21:17.403Z,84.40
2019-05-14T23:23:45.781Z,84.60
2019-05-14T23:26:14.466Z,82.00
2019-05-14T23:28:45.908Z,81.90
2019-05-14T23:31:12.953Z,86.50
2019-05-14T23:33:41.361Z,84.50
2019-05-14T23:36:09.864Z,84.20
2019-05-14T23:38:39.186Z,83.80
2019-05-14T23:41:08.730Z,82.00
2019-05-14T23:43:39.109Z,85.90
2019-05-14T23:46:09.450Z,84.20
2019-05-14T23:48:39.123Z,85.70
2019-05-14T23:51:08.194Z,83.50
2019-05-14T23:53:38.981Z,82.50
2019-05-14T23:56:08.585Z,82.00
2019-05-14T23:58:36.970Z,80.40
